Time;durP1;ratioP1;P1;durP2;ratioP2;P2;SDS_P1;SDS_P2;PMS_P1;PMS_P2;Temp;Humidity;BMP_temperature;BMP_pressure;BME280_temperature;BME280_humidity;BME280_pressure;Samples;Min_cycle;Max_cycle;Signal;HPM_P1;HPM_P2
2022/02/08 00:00:26;;;;;;;7.53;3.00;;;;;;;;;;5030728;28;24435;-55
2022/02/08 00:02:54;;;;;;;5.60;2.73;;;;;;;;;;5032273;28;24416;-55
2022/02/08 00:05:21;;;;;;;5.65;2.40;;;;;;;;;;5036640;28;24497;-55
2022/02/08 00:07:50;;;;;;;8.52;2.40;;;;;;;;;;5038138;28;24565;-55
2022/02/08 00:10:15;;;;;;;10.50;3.00;;;;;;;;;;5045764;28;24797;-56
2022/02/08 00:12:41;;;;;;;8.63;2.90;;;;;;;;;;5031320;28;25013;-55
2022/02/08 00:15:06;;;;;;;6.40;3.00;;;;;;;;;;5039255;28;24950;-55
2022/02/08 00:17:31;;;;;;;6.90;2.40;;;;;;;;;;5037752;28;24870;-55
2022/02/08 00:19:59;;;;;;;5.57;2.50;;;;;;;;;;5039323;28;24411;-55
2022/02/08 00:22:24;;;;;;;5.38;2.70;;;;;;;;;;5031981;28;24423;-55
2022/02/08 00:24:50;;;;;;;6.53;3.10;;;;;;;;;;5028866;28;24449;-57
2022/02/08 00:27:15;;;;;;;5.40;2.65;;;;;;;;;;5029224;28;24987;-54
2022/02/08 00:29:40;;;;;;;5.63;2.67;;;;;;;;;;5044417;28;24458;-55
2022/02/08 00:32:06;;;;;;;9.68;2.80;;;;;;;;;;5027868;28;25041;-55
2022/02/08 00:34:31;;;;;;;3.85;2.33;;;;;;;;;;5024496;28;24427;-54
2022/02/08 00:36:56;;;;;;;5.70;2.67;;;;;;;;;;5031578;28;24984;-54
2022/02/08 00:39:23;;;;;;;5.70;3.00;;;;;;;;;;5028990;28;24556;-54
2022/02/08 00:41:48;;;;;;;4.82;2.60;;;;;;;;;;5028287;28;24527;-55
2022/02/08 00:44:22;;;;;;;8.30;2.70;;;;;;;;;;5035666;28;24575;-55
2022/02/08 00:46:59;;;;;;;9.13;3.20;;;;;;;;;;5030659;28;24416;-55
2022/02/08 00:49:31;;;;;;;5.20;2.80;;;;;;;;;;5035153;28;24411;-56
2022/02/08 00:52:05;;;;;;;7.50;2.85;;;;;;;;;;5040073;28;24864;-55
2022/02/08 00:54:30;;;;;;;8.15;3.75;;;;;;;;;;5034275;28;24423;-55
2022/02/08 00:56:55;;;;;;;8.63;3.40;;;;;;;;;;5030406;28;24430;-55
2022/02/08 00:59:20;;;;;;;5.03;3.08;;;;;;;;;;5031684;28;24415;-55
2022/02/08 01:01:45;;;;;;;8.43;3.70;;;;;;;;;;5030991;28;24985;-56
2022/02/08 01:04:10;;;;;;;8.30;3.70;;;;;;;;;;5031633;28;24541;-55
2022/02/08 01:06:36;;;;;;;6.77;3.83;;;;;;;;;;5027275;28;24427;-55
2022/02/08 01:09:14;;;;;;;7.80;4.00;;;;;;;;;;5041936;28;24434;-55
2022/02/08 01:11:42;;;;;;;8.65;4.38;;;;;;;;;;5038883;28;24407;-56
2022/02/08 01:14:07;;;;;;;8.13;4.30;;;;;;;;;;5039606;28;24829;-55
2022/02/08 01:16:32;;;;;;;9.13;4.87;;;;;;;;;;5043068;28;24428;-55
2022/02/08 01:18:59;;;;;;;9.10;4.57;;;;;;;;;;5030510;28;24457;-55
2022/02/08 01:21:24;;;;;;;10.52;4.70;;;;;;;;;;5035248;28;24803;-55
2022/02/08 01:23:49;;;;;;;6.60;4.30;;;;;;;;;;5031797;28;24490;-56
2022/02/08 01:26:17;;;;;;;8.17;4.97;;;;;;;;;;5031281;28;24423;-55
2022/02/08 01:29:02;;;;;;;7.72;4.30;;;;;;;;;;5030477;28;24435;-56
2022/02/08 01:31:28;;;;;;;7.28;4.18;;;;;;;;;;5038690;28;24831;-56
2022/02/08 01:38:54;;;;;;;8.05;4.60;;;;;;;;;;5031297;28;24456;-55
2022/02/08 01:44:10;;;;;;;10.05;4.50;;;;;;;;;;5030187;28;24438;-56
2022/02/08 01:51:50;;;;;;;8.48;5.20;;;;;;;;;;5028804;28;24466;-56
2022/02/08 01:54:15;;;;;;;6.90;5.20;;;;;;;;;;5026370;28;24436;-55
2022/02/08 01:56:41;;;;;;;6.70;4.68;;;;;;;;;;5031731;28;24469;-55
2022/02/08 01:59:06;;;;;;;9.70;4.70;;;;;;;;;;5026643;28;24416;-55
2022/02/08 02:01:31;;;;;;;7.20;4.55;;;;;;;;;;5033946;28;25048;-56
2022/02/08 02:03:56;;;;;;;9.10;4.50;;;;;;;;;;5026797;28;24415;-55
2022/02/08 02:06:22;;;;;;;6.07;4.00;;;;;;;;;;5033439;28;24517;-55
2022/02/08 02:08:47;;;;;;;6.45;4.30;;;;;;;;;;5032513;28;24442;-56
2022/02/08 02:11:13;;;;;;;8.20;4.80;;;;;;;;;;5046698;28;24419;-55
2022/02/08 02:13:43;;;;;;;8.43;4.70;;;;;;;;;;5026396;28;24420;-54
2022/02/08 02:16:10;;;;;;;8.07;4.80;;;;;;;;;;5030172;28;24434;-56
2022/02/08 02:18:35;;;;;;;7.05;4.40;;;;;;;;;;5032697;28;24581;-56
2022/02/08 02:21:03;;;;;;;5.60;4.57;;;;;;;;;;5030443;28;24883;-55
2022/02/08 02:23:28;;;;;;;7.05;4.60;;;;;;;;;;5026536;28;24415;-56
2022/02/08 02:25:54;;;;;;;7.20;4.43;;;;;;;;;;5027651;28;24473;-55
2022/02/08 02:28:19;;;;;;;9.83;4.63;;;;;;;;;;5025592;28;24493;-55
2022/02/08 02:30:44;;;;;;;8.60;5.00;;;;;;;;;;5030909;28;25197;-55
2022/02/08 02:33:10;;;;;;;7.37;4.50;;;;;;;;;;5026687;28;24431;-58
2022/02/08 02:35:36;;;;;;;7.57;4.85;;;;;;;;;;5031008;28;24486;-55
2022/02/08 02:38:04;;;;;;;6.00;5.00;;;;;;;;;;5031115;28;24434;-53
2022/02/08 02:40:31;;;;;;;6.82;4.80;;;;;;;;;;5030398;28;24419;-55
2022/02/08 02:42:56;;;;;;;8.27;4.53;;;;;;;;;;5034602;28;25015;-55
2022/02/08 02:45:22;;;;;;;7.50;5.30;;;;;;;;;;5038673;28;24419;-55
2022/02/08 02:47:52;;;;;;;8.27;5.27;;;;;;;;;;5038558;28;24477;-55
2022/02/08 02:50:17;;;;;;;7.17;5.00;;;;;;;;;;5030766;28;24423;-55
2022/02/08 02:52:42;;;;;;;8.37;5.10;;;;;;;;;;5030054;28;24424;-55
2022/02/08 02:55:08;;;;;;;7.75;5.32;;;;;;;;;;5030290;28;25052;-55
2022/02/08 02:57:33;;;;;;;8.30;5.50;;;;;;;;;;5032172;28;24506;-55
2022/02/08 03:00:10;;;;;;;8.40;5.63;;;;;;;;;;5039535;28;24438;-55
2022/02/08 03:02:47;;;;;;;6.63;5.57;;;;;;;;;;5027200;28;24485;-55
2022/02/08 03:18:36;;;;;;;7.07;5.10;;;;;;;;;;5042259;28;24486;-56
2022/02/08 03:21:02;;;;;;;9.80;5.15;;;;;;;;;;5034830;28;24507;-55
2022/02/08 03:23:28;;;;;;;8.23;5.90;;;;;;;;;;5028999;28;24444;-55
2022/02/08 03:25:53;;;;;;;7.95;5.93;;;;;;;;;;5028779;28;24455;-54
2022/02/08 03:28:18;;;;;;;7.40;5.30;;;;;;;;;;5042662;28;24446;-55
2022/02/08 03:30:44;;;;;;;9.27;6.20;;;;;;;;;;5034843;28;24785;-54
2022/02/08 03:33:09;;;;;;;6.77;4.90;;;;;;;;;;5040749;28;24416;-55
2022/02/08 03:35:34;;;;;;;6.30;4.90;;;;;;;;;;5042083;28;24969;-54
2022/02/08 03:38:03;;;;;;;7.23;5.40;;;;;;;;;;5029006;28;24511;-55
2022/02/08 03:40:39;;;;;;;6.63;5.80;;;;;;;;;;5035702;28;24530;-55
2022/02/08 03:43:27;;;;;;;7.45;5.50;;;;;;;;;;5038571;28;24458;-55
2022/02/08 03:45:55;;;;;;;8.73;6.10;;;;;;;;;;5034310;28;24419;-55
2022/02/08 03:48:23;;;;;;;6.90;5.70;;;;;;;;;;5035606;28;24767;-55
2022/02/08 03:50:54;;;;;;;7.18;5.50;;;;;;;;;;5027966;28;24490;-55
2022/02/08 03:53:20;;;;;;;6.65;5.70;;;;;;;;;;5029354;28;24821;-55
2022/02/08 03:55:46;;;;;;;8.02;5.95;;;;;;;;;;5037762;28;24427;-55
2022/02/08 03:58:11;;;;;;;8.05;6.05;;;;;;;;;;5038636;28;24412;-55
2022/02/08 04:00:49;;;;;;;9.07;6.10;;;;;;;;;;5032983;28;24416;-55
2022/02/08 04:03:14;;;;;;;7.40;5.85;;;;;;;;;;5037092;28;24413;-55
2022/02/08 04:05:44;;;;;;;11.32;6.32;;;;;;;;;;5034436;28;24451;-55
2022/02/08 04:08:12;;;;;;;9.23;6.22;;;;;;;;;;5039379;28;24411;-55
2022/02/08 04:10:37;;;;;;;6.60;6.00;;;;;;;;;;5033717;28;24518;-55
2022/02/08 04:18:21;;;;;;;9.30;6.17;;;;;;;;;;5034386;28;24459;-56
2022/02/08 04:34:24;;;;;;;7.00;5.32;;;;;;;;;;5034695;28;24518;-57
2022/02/08 04:42:00;;;;;;;7.45;5.50;;;;;;;;;;5035635;28;24408;-55
2022/02/08 04:44:57;;;;;;;7.27;5.70;;;;;;;;;;5040428;28;24408;-56
2022/02/08 04:47:17;;;;;;;11.48;6.50;;;;;;;;;;5028080;28;24416;-56
2022/02/08 04:49:42;;;;;;;7.47;5.53;;;;;;;;;;5037654;28;24491;-57
2022/02/08 04:52:10;;;;;;;6.53;5.23;;;;;;;;;;5026963;28;25157;-56
2022/02/08 05:27:23;;;;;;;7.75;4.53;;;;;;;;;;5030864;28;24965;-56
2022/02/08 05:40:40;;;;;;;5.07;4.40;;;;;;;;;;5024258;28;24424;-57
2022/02/08 05:43:26;;;;;;;7.75;4.78;;;;;;;;;;5029962;28;24462;-56
2022/02/08 05:48:24;;;;;;;5.95;4.30;;;;;;;;;;5044197;28;24407;-56
2022/02/08 05:51:03;;;;;;;6.32;4.45;;;;;;;;;;5027205;28;24909;-57
2022/02/08 05:53:41;;;;;;;7.30;4.22;;;;;;;;;;5026554;28;24877;-56
2022/02/08 05:56:07;;;;;;;5.82;3.90;;;;;;;;;;5040012;28;25082;-56
2022/02/08 05:58:32;;;;;;;7.37;4.10;;;;;;;;;;5027613;28;24950;-55
2022/02/08 06:00:57;;;;;;;7.73;4.53;;;;;;;;;;5027309;28;24408;-55
2022/02/08 06:03:23;;;;;;;6.60;4.40;;;;;;;;;;5038608;28;24454;-55
2022/02/08 06:05:49;;;;;;;6.03;3.70;;;;;;;;;;5038675;28;24531;-56
2022/02/08 06:08:14;;;;;;;6.05;4.20;;;;;;;;;;5027885;28;25073;-56
2022/02/08 06:10:47;;;;;;;7.85;3.80;;;;;;;;;;5023762;28;24584;-56
2022/02/08 06:13:14;;;;;;;6.13;4.20;;;;;;;;;;5028206;28;24410;-56
2022/02/08 06:15:39;;;;;;;6.97;3.93;;;;;;;;;;5033270;28;25125;-57
2022/02/08 06:18:04;;;;;;;5.60;3.73;;;;;;;;;;5025847;28;24416;-56
2022/02/08 06:20:30;;;;;;;5.80;3.60;;;;;;;;;;5027663;28;24408;-55
2022/02/08 06:22:55;;;;;;;6.90;3.50;;;;;;;;;;5029957;28;24514;-55
2022/02/08 06:25:20;;;;;;;5.83;3.27;;;;;;;;;;5034887;28;25143;-56
2022/02/08 06:27:47;;;;;;;6.53;3.67;;;;;;;;;;5029401;28;24509;-56
2022/02/08 06:30:13;;;;;;;6.80;3.85;;;;;;;;;;5026118;28;24487;-56
2022/02/08 06:32:38;;;;;;;5.13;3.80;;;;;;;;;;5026992;28;24503;-56
2022/02/08 06:35:09;;;;;;;6.37;3.50;;;;;;;;;;5040007;28;24493;-56
2022/02/08 06:37:37;;;;;;;6.33;3.60;;;;;;;;;;5044754;28;24490;-55
2022/02/08 06:40:02;;;;;;;6.93;3.43;;;;;;;;;;5046239;28;24953;-55
2022/02/08 06:42:28;;;;;;;7.50;3.20;;;;;;;;;;5039039;28;24462;-56
2022/02/08 06:44:53;;;;;;;5.40;3.20;;;;;;;;;;5028413;28;24910;-57
2022/02/08 06:47:18;;;;;;;4.72;2.88;;;;;;;;;;5031238;28;24424;-56
2022/02/08 06:49:43;;;;;;;5.03;2.80;;;;;;;;;;5041840;28;24808;-57
2022/02/08 06:52:08;;;;;;;8.63;4.40;;;;;;;;;;5037811;28;24427;-56
2022/02/08 06:54:33;;;;;;;5.40;2.80;;;;;;;;;;5035804;28;25017;-57
2022/02/08 06:56:59;;;;;;;5.27;2.77;;;;;;;;;;5039826;28;24462;-56
2022/02/08 06:59:25;;;;;;;6.43;2.60;;;;;;;;;;5035834;28;24759;-57
2022/02/08 07:01:50;;;;;;;4.97;2.60;;;;;;;;;;5047571;28;24431;-56
2022/02/08 07:04:15;;;;;;;4.60;2.50;;;;;;;;;;5048431;28;24949;-57
2022/02/08 07:06:46;;;;;;;3.13;2.10;;;;;;;;;;5050017;28;24410;-57
2022/02/08 07:09:12;;;;;;;3.85;2.30;;;;;;;;;;5037963;28;24998;-57
2022/02/08 07:11:38;;;;;;;4.30;2.40;;;;;;;;;;5035877;28;24613;-57
2022/02/08 07:14:05;;;;;;;3.40;2.40;;;;;;;;;;5034212;28;24431;-56
2022/02/08 07:16:31;;;;;;;5.28;2.30;;;;;;;;;;5045331;28;25122;-57
2022/02/08 07:18:56;;;;;;;3.70;2.37;;;;;;;;;;5041541;28;24510;-54
2022/02/08 07:21:21;;;;;;;3.70;2.30;;;;;;;;;;5038710;28;24562;-55
2022/02/08 07:23:46;;;;;;;5.80;2.70;;;;;;;;;;5036115;28;24534;-56
2022/02/08 07:26:12;;;;;;;5.30;2.20;;;;;;;;;;5034719;28;24539;-56
2022/02/08 07:28:41;;;;;;;3.87;2.10;;;;;;;;;;5029603;28;24762;-55
2022/02/08 07:31:14;;;;;;;2.40;2.13;;;;;;;;;;5044541;28;25034;-56
2022/02/08 07:33:43;;;;;;;3.13;2.30;;;;;;;;;;5038702;28;24442;-55
2022/02/08 07:36:23;;;;;;;3.42;2.20;;;;;;;;;;5030384;28;25000;-55
2022/02/08 07:38:50;;;;;;;4.35;2.40;;;;;;;;;;5031252;28;24459;-56
2022/02/08 07:43:59;;;;;;;5.13;3.00;;;;;;;;;;5029862;28;24435;-56
2022/02/08 07:46:25;;;;;;;3.92;2.58;;;;;;;;;;5040727;28;24442;-56
2022/02/08 07:48:50;;;;;;;2.60;2.20;;;;;;;;;;5048712;28;24402;-56
2022/02/08 07:51:15;;;;;;;4.70;2.60;;;;;;;;;;5041124;28;24408;-56
2022/02/08 07:53:40;;;;;;;3.97;1.90;;;;;;;;;;5029172;28;24411;-56
2022/02/08 07:56:05;;;;;;;2.50;1.80;;;;;;;;;;5026075;28;24447;-56
2022/02/08 07:58:31;;;;;;;4.78;2.30;;;;;;;;;;5028874;28;24392;-55
2022/02/08 08:00:56;;;;;;;3.33;2.30;;;;;;;;;;5028580;28;24391;-55
2022/02/08 08:03:21;;;;;;;3.37;2.50;;;;;;;;;;5048254;28;24951;-56
2022/02/08 08:05:47;;;;;;;2.92;2.10;;;;;;;;;;5044584;28;25066;-56
2022/02/08 08:08:14;;;;;;;3.88;2.47;;;;;;;;;;5029083;28;24542;-56
2022/02/08 08:10:44;;;;;;;6.23;2.60;;;;;;;;;;5028952;28;24506;-56
2022/02/08 08:13:12;;;;;;;3.60;2.28;;;;;;;;;;5028271;28;24913;-56
2022/02/08 08:15:51;;;;;;;3.80;2.10;;;;;;;;;;5030213;28;25247;-56
2022/02/08 08:20:57;;;;;;;5.18;2.63;;;;;;;;;;5048586;28;24480;-57
2022/02/08 08:23:22;;;;;;;2.70;2.13;;;;;;;;;;5048021;28;24384;-56
2022/02/08 08:25:50;;;;;;;4.22;2.30;;;;;;;;;;5030069;28;24408;-57
2022/02/08 08:28:15;;;;;;;3.20;2.10;;;;;;;;;;5026658;28;24445;-56
2022/02/08 08:30:40;;;;;;;4.97;2.65;;;;;;;;;;5028400;28;24392;-56
2022/02/08 08:33:06;;;;;;;4.78;2.55;;;;;;;;;;5028268;28;24388;-57
2022/02/08 08:35:33;;;;;;;3.88;2.47;;;;;;;;;;5028998;28;24420;-56
2022/02/08 08:38:03;;;;;;;4.47;2.40;;;;;;;;;;5028333;28;24399;-56
2022/02/08 08:40:45;;;;;;;3.85;2.35;;;;;;;;;;5028215;28;24418;-57
2022/02/08 08:51:43;;;;;;;4.73;2.20;;;;;;;;;;5027603;28;24480;-55
2022/02/08 08:53:47;;;;;;;3.17;2.10;;;;;;;;;;5026748;28;24809;-57
2022/02/08 08:56:12;;;;;;;3.42;2.38;;;;;;;;;;5037796;28;24530;-56
2022/02/08 08:58:43;;;;;;;4.23;2.10;;;;;;;;;;5031420;28;24779;-55
2022/02/08 09:01:08;;;;;;;3.78;2.50;;;;;;;;;;5047075;28;24418;-56
2022/02/08 09:03:34;;;;;;;4.18;2.58;;;;;;;;;;5047433;28;24399;-56
2022/02/08 09:05:59;;;;;;;5.20;2.30;;;;;;;;;;5047456;28;24383;-56
2022/02/08 09:08:29;;;;;;;4.70;2.60;;;;;;;;;;5046005;28;24395;-56
2022/02/08 09:11:07;;;;;;;5.35;2.40;;;;;;;;;;5044569;28;24554;-56
2022/02/08 09:13:40;;;;;;;3.33;2.15;;;;;;;;;;5047292;28;24395;-56
2022/02/08 09:16:20;;;;;;;4.30;2.40;;;;;;;;;;5047213;28;24418;-56
2022/02/08 09:19:07;;;;;;;4.27;2.60;;;;;;;;;;5041445;28;24404;-56
2022/02/08 09:21:58;;;;;;;2.83;2.30;;;;;;;;;;5034036;28;24400;-56
2022/02/08 09:29:52;;;;;;;4.50;2.60;;;;;;;;;;5047395;28;25042;-56
2022/02/08 09:32:20;;;;;;;5.25;2.83;;;;;;;;;;5038098;28;24520;-56
2022/02/08 09:34:46;;;;;;;3.60;2.65;;;;;;;;;;5026987;28;24407;-56
2022/02/08 09:37:13;;;;;;;3.10;2.63;;;;;;;;;;5027182;28;24388;-55
2022/02/08 09:39:39;;;;;;;4.53;2.55;;;;;;;;;;5027265;28;24442;-56
2022/02/08 09:42:05;;;;;;;5.13;2.60;;;;;;;;;;5028264;28;24423;-57
2022/02/08 09:44:32;;;;;;;3.38;2.20;;;;;;;;;;5026877;28;24399;-57
2022/02/08 09:46:59;;;;;;;3.23;2.10;;;;;;;;;;5027138;28;24475;-57
2022/02/08 09:49:24;;;;;;;4.28;2.60;;;;;;;;;;5027433;28;24450;-56
2022/02/08 09:51:51;;;;;;;3.47;2.17;;;;;;;;;;5026852;28;24813;-56
2022/02/08 09:54:19;;;;;;;2.78;2.33;;;;;;;;;;5042658;28;24756;-56
2022/02/08 09:56:45;;;;;;;2.88;2.00;;;;;;;;;;5046078;28;24423;-56
2022/02/08 09:59:10;;;;;;;2.60;1.80;;;;;;;;;;5046877;28;24426;-57
2022/02/08 10:01:35;;;;;;;4.43;2.10;;;;;;;;;;5039298;28;24477;-57
2022/02/08 10:04:01;;;;;;;2.50;2.30;;;;;;;;;;5027341;28;24384;-56
2022/02/08 10:06:28;;;;;;;3.77;2.40;;;;;;;;;;5027087;28;24412;-57
2022/02/08 10:08:57;;;;;;;2.60;2.05;;;;;;;;;;5027026;28;24400;-56
2022/02/08 10:11:27;;;;;;;2.63;1.92;;;;;;;;;;5028289;28;24802;-56
2022/02/08 10:22:08;;;;;;;2.80;2.00;;;;;;;;;;5033076;28;24392;-56
2022/02/08 10:24:36;;;;;;;5.07;2.20;;;;;;;;;;5050609;28;24390;-56
2022/02/08 10:27:06;;;;;;;3.10;2.10;;;;;;;;;;5049466;28;24850;-57
2022/02/08 10:32:32;;;;;;;3.15;1.80;;;;;;;;;;5030664;28;24931;-56
2022/02/08 10:37:48;;;;;;;2.97;2.30;;;;;;;;;;5030886;28;24414;-57
2022/02/08 10:40:18;;;;;;;3.08;1.98;;;;;;;;;;5030257;28;24757;-56
2022/02/08 10:42:51;;;;;;;2.33;2.00;;;;;;;;;;5030558;28;25015;-57
2022/02/08 10:45:17;;;;;;;2.80;2.00;;;;;;;;;;5030240;28;24422;-58
2022/02/08 10:47:45;;;;;;;3.90;2.00;;;;;;;;;;5030746;28;24504;-56
2022/02/08 10:50:11;;;;;;;1.80;1.70;;;;;;;;;;5030467;28;24526;-56
2022/02/08 10:52:38;;;;;;;2.50;2.08;;;;;;;;;;5030231;28;24490;-55
2022/02/08 10:57:50;;;;;;;2.80;2.20;;;;;;;;;;5049094;28;24774;-57
2022/02/08 11:00:21;;;;;;;3.05;2.20;;;;;;;;;;5043568;28;24945;-55
2022/02/08 11:02:49;;;;;;;2.45;2.15;;;;;;;;;;5050038;28;24898;-56
2022/02/08 11:05:23;;;;;;;2.60;1.98;;;;;;;;;;5038671;28;24423;-56
2022/02/08 11:08:12;;;;;;;3.75;2.08;;;;;;;;;;5030316;28;24403;-57
2022/02/08 11:14:04;;;;;;;4.25;2.10;;;;;;;;;;5030103;28;24415;-57
2022/02/08 11:16:43;;;;;;;3.00;2.03;;;;;;;;;;5030833;28;25081;-56
2022/02/08 11:19:39;;;;;;;3.67;2.30;;;;;;;;;;5029620;28;24394;-56
2022/02/08 11:22:22;;;;;;;5.18;2.33;;;;;;;;;;5030056;28;24498;-56
2022/02/08 11:24:51;;;;;;;2.47;2.28;;;;;;;;;;5029992;28;24711;-56
2022/02/08 11:27:19;;;;;;;3.38;2.10;;;;;;;;;;5047958;28;24979;-57
2022/02/08 11:30:06;;;;;;;3.38;2.10;;;;;;;;;;5047460;28;25011;-57
2022/02/08 11:33:00;;;;;;;2.30;2.10;;;;;;;;;;5048773;28;24936;-56
2022/02/08 11:46:37;;;;;;;2.40;2.20;;;;;;;;;;5047406;28;24470;-55
2022/02/08 11:54:19;;;;;;;2.70;1.90;;;;;;;;;;5048898;28;25023;-57
2022/02/08 11:57:15;;;;;;;2.45;2.00;;;;;;;;;;5049618;28;24426;-57
2022/02/08 11:59:54;;;;;;;2.45;2.05;;;;;;;;;;5045536;28;24408;-57
2022/02/08 12:07:34;;;;;;;2.00;1.80;;;;;;;;;;5049048;28;24509;-57
2022/02/08 12:10:13;;;;;;;3.30;1.80;;;;;;;;;;5045044;28;24427;-56
2022/02/08 12:31:44;;;;;;;2.30;1.70;;;;;;;;;;5029704;28;25021;-56
2022/02/08 12:51:47;;;;;;;3.78;2.95;;;;;;;;;;5047301;28;24941;-57
2022/02/08 12:56:32;;;;;;;10.95;7.63;;;;;;;;;;5029560;28;24535;-56
2022/02/08 12:59:13;;;;;;;6.70;4.30;;;;;;;;;;5047653;28;24391;-56
2022/02/08 13:02:14;;;;;;;6.15;5.30;;;;;;;;;;5027123;28;24486;-57
2022/02/08 13:18:53;;;;;;;2.60;2.40;;;;;;;;;;5027690;28;24836;-57
2022/02/08 14:05:42;;;;;;;2.00;1.80;;;;;;;;;;5027055;28;24411;-57
2022/02/08 14:11:10;;;;;;;1.80;1.40;;;;;;;;;;5027306;28;26350;-57
2022/02/08 14:13:56;;;;;;;2.20;1.60;;;;;;;;;;5027018;28;24422;-57
2022/02/08 14:21:53;;;;;;;4.15;1.80;;;;;;;;;;5045001;28;24387;-57
2022/02/08 14:24:35;;;;;;;2.47;1.83;;;;;;;;;;5034563;28;24589;-56
2022/02/08 14:29:54;;;;;;;1.95;1.50;;;;;;;;;;5029503;28;24461;-57
2022/02/08 14:48:52;;;;;;;1.90;1.60;;;;;;;;;;5027770;28;24426;-57
2022/02/08 15:00:12;;;;;;;1.70;1.60;;;;;;;;;;5043990;28;24767;-56
2022/02/08 15:08:03;;;;;;;2.60;1.70;;;;;;;;;;5029619;28;24743;-57
2022/02/08 15:10:40;;;;;;;1.80;1.70;;;;;;;;;;5030098;28;24663;-56
2022/02/08 15:13:06;;;;;;;2.20;1.80;;;;;;;;;;5034684;28;24423;-56
2022/02/08 15:15:42;;;;;;;2.73;1.80;;;;;;;;;;5050117;28;24553;-57
2022/02/08 15:18:07;;;;;;;1.95;1.85;;;;;;;;;;5049735;28;24392;-57
2022/02/08 15:20:33;;;;;;;4.00;2.20;;;;;;;;;;5037742;28;24426;-57
2022/02/08 15:23:00;;;;;;;2.27;2.00;;;;;;;;;;5030767;28;24419;-57
2022/02/08 15:25:27;;;;;;;2.20;1.90;;;;;;;;;;5029978;28;24478;-57
2022/02/08 15:27:53;;;;;;;2.20;2.00;;;;;;;;;;5029686;28;24619;-57
2022/02/08 15:30:18;;;;;;;2.20;2.00;;;;;;;;;;5033988;28;24494;-55
2022/02/08 15:32:44;;;;;;;2.80;2.17;;;;;;;;;;5047865;28;24723;-56
2022/02/08 15:35:09;;;;;;;2.50;2.00;;;;;;;;;;5049468;28;24411;-56
2022/02/08 15:37:34;;;;;;;2.25;2.05;;;;;;;;;;5048420;28;24498;-56
2022/02/08 15:40:00;;;;;;;2.80;2.20;;;;;;;;;;5049279;28;24423;-57
2022/02/08 15:42:30;;;;;;;2.30;2.10;;;;;;;;;;5045830;28;24501;-57
2022/02/08 15:44:57;;;;;;;1.95;1.83;;;;;;;;;;5049115;28;24419;-56
2022/02/08 15:47:23;;;;;;;2.40;2.20;;;;;;;;;;5048930;28;24383;-56
2022/02/08 15:49:56;;;;;;;2.70;2.40;;;;;;;;;;5049448;28;24402;-56
2022/02/08 15:52:31;;;;;;;2.83;1.83;;;;;;;;;;5037327;28;24415;-55
2022/02/08 15:54:58;;;;;;;2.60;2.20;;;;;;;;;;5029183;28;24496;-55
2022/02/08 15:58:02;;;;;;;2.53;2.20;;;;;;;;;;5029070;28;24395;-57
2022/02/08 16:06:13;;;;;;;2.30;2.10;;;;;;;;;;5040281;28;24771;-56
2022/02/08 16:08:33;;;;;;;3.17;2.42;;;;;;;;;;5028820;28;24408;-56
2022/02/08 16:13:54;;;;;;;3.35;2.25;;;;;;;;;;5034995;28;24419;-56
2022/02/08 16:16:42;;;;;;;2.67;2.30;;;;;;;;;;5029784;28;24420;-57
2022/02/08 16:19:41;;;;;;;4.22;2.50;;;;;;;;;;5043581;28;24763;-57
2022/02/08 16:24:53;;;;;;;3.33;2.30;;;;;;;;;;5028376;28;24372;-55
2022/02/08 16:54:20;;;;;;;3.05;2.60;;;;;;;;;;5040249;28;24545;-57
2022/02/08 16:59:21;;;;;;;2.90;2.67;;;;;;;;;;5027460;28;24518;-57
2022/02/08 17:01:46;;;;;;;3.03;2.50;;;;;;;;;;5040305;28;24404;-57
2022/02/08 17:04:11;;;;;;;3.00;2.80;;;;;;;;;;5029967;28;25133;-56
2022/02/08 17:06:36;;;;;;;2.85;2.50;;;;;;;;;;5032425;28;24411;-57
2022/02/08 17:09:08;;;;;;;2.90;2.70;;;;;;;;;;5027438;28;24424;-57
2022/02/08 17:11:40;;;;;;;3.30;2.67;;;;;;;;;;5032051;28;24519;-57
2022/02/08 17:14:31;;;;;;;3.88;2.80;;;;;;;;;;5032996;28;25064;-57
2022/02/08 17:37:04;;;;;;;4.40;3.45;;;;;;;;;;5046165;28;24422;-57
2022/02/08 17:47:13;;;;;;;3.92;3.63;;;;;;;;;;5041326;28;24422;-57
2022/02/08 17:49:39;;;;;;;3.77;3.47;;;;;;;;;;5034712;28;24450;-57
2022/02/08 17:52:04;;;;;;;4.27;3.83;;;;;;;;;;5039254;28;24557;-56
2022/02/08 17:54:29;;;;;;;4.60;4.10;;;;;;;;;;5046540;28;25064;-56
2022/02/08 17:56:57;;;;;;;4.50;4.10;;;;;;;;;;5046941;28;24480;-56
2022/02/08 17:59:24;;;;;;;4.30;3.90;;;;;;;;;;5063821;28;24402;-56
2022/02/08 18:01:50;;;;;;;4.80;4.40;;;;;;;;;;5041639;28;24867;-57
2022/02/08 18:04:15;;;;;;;4.20;3.80;;;;;;;;;;5028039;28;24522;-57
2022/02/08 18:06:40;;;;;;;4.30;3.90;;;;;;;;;;5043660;28;24487;-57
2022/02/08 18:09:06;;;;;;;4.23;3.83;;;;;;;;;;5033457;28;24423;-56
2022/02/08 18:11:37;;;;;;;4.33;3.93;;;;;;;;;;5026313;28;24408;-56
2022/02/08 18:14:02;;;;;;;4.60;4.20;;;;;;;;;;5039218;28;24411;-56
2022/02/08 18:16:33;;;;;;;4.50;4.10;;;;;;;;;;5031218;28;24446;-56
2022/02/08 18:19:01;;;;;;;4.93;4.20;;;;;;;;;;5029606;28;24459;-57
2022/02/08 18:21:32;;;;;;;4.97;4.30;;;;;;;;;;5027477;28;24523;-56
2022/02/08 18:50:23;;;;;;;4.82;4.28;;;;;;;;;;5024018;28;24395;-58
2022/02/08 18:56:28;;;;;;;5.03;4.32;;;;;;;;;;5027373;28;24419;-57
2022/02/08 19:07:13;;;;;;;4.60;4.20;;;;;;;;;;5045996;28;25011;-57
2022/02/08 19:12:29;;;;;;;4.38;3.97;;;;;;;;;;5031877;28;25071;-57
2022/02/08 19:15:17;;;;;;;4.80;4.40;;;;;;;;;;5029134;28;24928;-56
2022/02/08 19:18:17;;;;;;;4.50;4.10;;;;;;;;;;5046336;28;24422;-56
2022/02/08 19:20:43;;;;;;;4.57;4.18;;;;;;;;;;5042327;28;24402;-57
2022/02/08 19:23:08;;;;;;;4.40;4.00;;;;;;;;;;5038690;28;24434;-57
2022/02/08 19:25:33;;;;;;;3.95;3.60;;;;;;;;;;5044657;28;24826;-58
2022/02/08 19:28:01;;;;;;;4.82;4.43;;;;;;;;;;5046575;28;24494;-57
2022/02/08 19:30:26;;;;;;;4.70;4.30;;;;;;;;;;5044687;28;24399;-55
2022/02/08 19:32:52;;;;;;;4.40;4.00;;;;;;;;;;5033253;28;24438;-58
2022/02/08 19:35:17;;;;;;;5.10;4.27;;;;;;;;;;5026811;28;24427;-57
2022/02/08 19:37:44;;;;;;;4.30;3.90;;;;;;;;;;5022751;28;24426;-56
2022/02/08 19:40:10;;;;;;;4.90;4.40;;;;;;;;;;5028015;28;24439;-57
2022/02/08 19:42:35;;;;;;;5.10;4.60;;;;;;;;;;5029908;28;24431;-57
2022/02/08 19:45:10;;;;;;;4.93;4.50;;;;;;;;;;5036252;28;24416;-56
2022/02/08 19:47:35;;;;;;;4.90;4.40;;;;;;;;;;5030313;28;24439;-56
2022/02/08 19:50:00;;;;;;;5.20;4.70;;;;;;;;;;5041584;28;24521;-57
2022/02/08 19:52:28;;;;;;;5.10;4.60;;;;;;;;;;5029057;28;24412;-58
2022/02/08 19:57:27;;;;;;;5.82;5.15;;;;;;;;;;5032205;28;25018;-58
2022/02/08 19:59:53;;;;;;;5.30;4.70;;;;;;;;;;5027209;28;24449;-58
2022/02/08 20:02:20;;;;;;;6.03;5.00;;;;;;;;;;5032861;28;24470;-57
2022/02/08 20:04:48;;;;;;;4.80;4.40;;;;;;;;;;5031555;28;24505;-56
2022/02/08 20:07:13;;;;;;;4.60;4.20;;;;;;;;;;5032736;28;24420;-57
2022/02/08 20:09:38;;;;;;;6.47;4.80;;;;;;;;;;5037813;28;24489;-57
2022/02/08 20:12:04;;;;;;;4.90;4.50;;;;;;;;;;5030493;28;24582;-57
2022/02/08 20:14:29;;;;;;;5.22;4.72;;;;;;;;;;5036772;28;24956;-57
2022/02/08 20:16:54;;;;;;;5.17;4.77;;;;;;;;;;5039028;28;24507;-57
2022/02/08 20:19:20;;;;;;;4.90;4.43;;;;;;;;;;5025800;28;25011;-57
2022/02/08 20:21:48;;;;;;;4.60;4.20;;;;;;;;;;5043638;28;24500;-57
2022/02/08 20:24:15;;;;;;;4.70;4.30;;;;;;;;;;5045607;28;24419;-57
2022/02/08 20:29:12;;;;;;;5.75;4.50;;;;;;;;;;5033313;28;24415;-57
2022/02/08 20:31:37;;;;;;;5.47;4.93;;;;;;;;;;5030345;28;24411;-57
2022/02/08 20:34:02;;;;;;;4.80;4.40;;;;;;;;;;5027152;28;24786;-57
2022/02/08 20:36:27;;;;;;;5.43;4.37;;;;;;;;;;5027070;28;24440;-58
2022/02/08 20:38:52;;;;;;;4.77;4.37;;;;;;;;;;5028018;28;25025;-56
2022/02/08 20:41:22;;;;;;;5.28;4.78;;;;;;;;;;5029221;28;24474;-56
2022/02/08 20:43:47;;;;;;;4.70;4.30;;;;;;;;;;5033455;28;24458;-56
2022/02/08 20:46:14;;;;;;;5.97;4.38;;;;;;;;;;5033222;28;24451;-57
2022/02/08 20:48:40;;;;;;;5.10;4.60;;;;;;;;;;5035036;28;24435;-57
2022/02/08 20:51:05;;;;;;;4.05;3.75;;;;;;;;;;5029106;28;24427;-57
2022/02/08 20:56:09;;;;;;;4.35;3.95;;;;;;;;;;5030236;28;24434;-57
2022/02/08 20:58:50;;;;;;;4.80;4.30;;;;;;;;;;5036629;28;24814;-57
2022/02/08 21:01:15;;;;;;;4.78;4.38;;;;;;;;;;5033067;28;24400;-57
2022/02/08 21:03:52;;;;;;;4.67;4.27;;;;;;;;;;5038992;28;24423;-57
2022/02/08 21:06:21;;;;;;;4.82;4.43;;;;;;;;;;5051322;28;24465;-57
2022/02/08 21:08:46;;;;;;;4.80;4.40;;;;;;;;;;5056072;28;24461;-56
2022/02/08 21:11:12;;;;;;;4.00;3.50;;;;;;;;;;5046507;28;24512;-57
2022/02/08 21:13:48;;;;;;;4.30;4.00;;;;;;;;;;5037951;28;24512;-56
2022/02/08 21:16:14;;;;;;;4.88;4.47;;;;;;;;;;5036375;28;24443;-56
2022/02/08 21:18:40;;;;;;;4.15;3.85;;;;;;;;;;5029710;28;24851;-56
2022/02/08 21:21:06;;;;;;;4.07;3.77;;;;;;;;;;5032771;28;24478;-56
2022/02/08 21:23:31;;;;;;;4.65;4.25;;;;;;;;;;5033524;28;24514;-57
2022/02/08 21:25:59;;;;;;;3.80;3.50;;;;;;;;;;5042852;28;24574;-57
2022/02/08 21:28:39;;;;;;;3.80;3.40;;;;;;;;;;5033910;28;24522;-57
2022/02/08 21:45:36;;;;;;;4.05;3.65;;;;;;;;;;5040003;28;24506;-55
2022/02/08 21:49:47;;;;;;;5.68;3.90;;;;;;;;;;5034401;28;24506;-57
2022/02/08 21:54:57;;;;;;;4.13;3.80;;;;;;;;;;5030801;28;24941;-57
2022/02/08 21:57:32;;;;;;;4.37;3.97;;;;;;;;;;5039982;28;24435;-57
2022/02/08 21:59:57;;;;;;;4.63;4.22;;;;;;;;;;5034167;28;24926;-57
2022/02/08 22:02:22;;;;;;;4.80;4.30;;;;;;;;;;5041233;28;24421;-57
2022/02/08 22:04:47;;;;;;;4.43;4.03;;;;;;;;;;5029167;28;25088;-56